Forside
METAR-TAF:

METAR-TAF

Lufthavne :

Mackinac Island Airport

Mackinac Island, Michigan, USA

Breddekreds: 45-51-54N, længdekreds: 084-38-14W, højde: 226 m

Aktuelle vejr

Denne rapport blev lavet for 13 minutter siden, kl. 14:15 UTC
Vind 8 kt fra nordnordøst
Temperatur 1°C
Fugtighed 86%
Tryk 1020 hPa
Sigt: 16.1 km
Overskyet i en højde af 1600 ft

METAR: KMCD 311415Z AUTO 03008KT 10SM OVC016 01/M01 A3012 RMK AO2 T00121007

Tid: 10:28 (14:28 UTC)


TAF: fraværende

Vejrobservationer og prognoser fra mere end 4000 lufthavne (METAR og TAF).

De gule og røde prikker repræsenterer de meteorologiske stationer.

Flyt musen over at se navnet på stationen.

Så klik over at se vejr observationer og prognoser.

At skifte det kort: Klik på de grønne knapper med et sort kors for at zoome ind; på den grønne knap med en bindestreg for at zoome ud; eller på de grønne pile for tilstødende kort.


METAR-TAF: